createdAt,value
2023-05-10T00:00:06.871Z,99.99
2023-05-10T00:01:06.854Z,99.99
2023-05-10T00:02:06.892Z,99.99
2023-05-10T00:03:07.025Z,99.99
2023-05-10T00:04:06.878Z,99.99
2023-05-10T00:05:06.824Z,99.99
2023-05-10T00:06:06.822Z,99.99
2023-05-10T00:07:06.819Z,99.99
2023-05-10T00:08:06.790Z,99.99
2023-05-10T00:09:06.780Z,99.99
2023-05-10T00:10:06.773Z,99.99
2023-05-10T00:11:06.865Z,99.99
2023-05-10T00:12:06.759Z,99.99
2023-05-10T00:13:06.780Z,99.99
2023-05-10T00:14:06.735Z,99.99
2023-05-10T00:15:06.729Z,99.99
2023-05-10T00:16:06.769Z,99.99
2023-05-10T00:17:06.718Z,99.99
2023-05-10T00:18:06.724Z,99.99
2023-05-10T00:19:06.684Z,99.99
2023-05-10T00:20:06.680Z,99.99
2023-05-10T00:21:06.665Z,99.99
2023-05-10T00:22:06.660Z,99.99
2023-05-10T00:23:06.674Z,99.99
2023-05-10T00:24:06.640Z,99.99
2023-05-10T00:25:06.629Z,99.99
2023-05-10T00:26:06.625Z,99.99
2023-05-10T00:27:06.627Z,99.99
2023-05-10T00:28:06.601Z,99.99
2023-05-10T00:29:06.594Z,99.99
2023-05-10T00:30:06.583Z,99.99
2023-05-10T00:31:06.574Z,99.99
2023-05-10T00:32:06.613Z,99.99
2023-05-10T00:33:06.578Z,99.99
2023-05-10T00:34:06.547Z,99.99
2023-05-10T00:35:06.535Z,99.99
2023-05-10T00:36:06.731Z,99.99
2023-05-10T00:37:06.519Z,99.99
2023-05-10T00:38:06.510Z,99.99
2023-05-10T00:39:06.508Z,99.99
2023-05-10T00:40:06.488Z,99.99
2023-05-10T00:41:06.491Z,99.99
2023-05-10T00:42:06.469Z,99.99
2023-05-10T00:43:06.477Z,99.99
2023-05-10T00:44:06.458Z,99.99
2023-05-10T00:45:06.446Z,99.99
2023-05-10T00:46:06.466Z,99.99
2023-05-10T00:47:06.427Z,99.99
2023-05-10T00:48:06.445Z,99.99
2023-05-10T00:49:06.399Z,99.99
2023-05-10T00:50:06.408Z,99.99
2023-05-10T00:51:06.386Z,99.99
2023-05-10T00:52:06.375Z,99.99
2023-05-10T00:53:06.361Z,99.99
2023-05-10T00:54:06.359Z,99.99
2023-05-10T00:55:06.359Z,99.99
2023-05-10T00:56:06.359Z,99.99
2023-05-10T00:57:06.326Z,99.99
2023-05-10T00:58:06.321Z,99.99
2023-05-10T00:59:06.326Z,99.99
2023-05-10T01:00:06.303Z,99.99
2023-05-10T01:01:06.320Z,99.99
2023-05-10T01:02:06.338Z,99.99
2023-05-10T01:03:06.332Z,99.99
2023-05-10T01:04:06.274Z,99.99
2023-05-10T01:05:06.335Z,99.99
2023-05-10T01:06:06.244Z,99.99
2023-05-10T01:07:06.231Z,99.99
2023-05-10T01:08:06.224Z,99.99
2023-05-10T01:09:06.211Z,99.99
2023-05-10T01:10:06.206Z,99.99
2023-05-10T01:11:06.193Z,99.99
2023-05-10T01:12:06.226Z,99.99
2023-05-10T01:13:06.199Z,99.99
2023-05-10T01:14:06.167Z,99.99
2023-05-10T01:15:06.182Z,99.99
2023-05-10T01:16:06.189Z,99.99
2023-05-10T01:17:06.134Z,99.99
2023-05-10T01:18:06.129Z,99.99
2023-05-10T01:19:06.119Z,99.99
2023-05-10T01:20:06.116Z,99.99
2023-05-10T01:21:06.100Z,99.99
2023-05-10T01:22:06.093Z,99.99
2023-05-10T01:23:06.079Z,99.99
2023-05-10T01:24:06.076Z,99.99
2023-05-10T01:25:06.083Z,99.99
2023-05-10T01:26:06.052Z,99.99
2023-05-10T01:27:06.060Z,99.99
2023-05-10T01:28:06.051Z,99.99
2023-05-10T01:29:06.034Z,99.99
2023-05-10T01:30:21.895Z,99.99
2023-05-10T01:31:06.073Z,99.99
2023-05-10T01:32:06.002Z,99.99
2023-05-10T01:33:06.018Z,99.99
2023-05-10T01:34:05.978Z,99.99
2023-05-10T01:35:05.968Z,99.99
2023-05-10T01:36:05.968Z,99.99
2023-05-10T01:37:05.960Z,99.99
2023-05-10T01:38:05.942Z,99.99
2023-05-10T01:39:05.924Z,99.99
2023-05-10T01:40:05.927Z,99.99
2023-05-10T01:41:05.904Z,99.99
2023-05-10T01:42:05.898Z,99.99
2023-05-10T01:43:05.884Z,99.99
2023-05-10T01:44:05.880Z,99.99
2023-05-10T01:45:05.870Z,99.99
2023-05-10T01:46:05.857Z,99.99
2023-05-10T01:47:05.869Z,99.99
2023-05-10T01:48:05.874Z,99.99
2023-05-10T01:49:05.829Z,99.99
2023-05-10T01:50:05.841Z,99.99
2023-05-10T01:51:05.804Z,99.99
2023-05-10T01:52:05.799Z,99.99
2023-05-10T01:53:05.786Z,99.99
2023-05-10T01:54:05.776Z,99.99
2023-05-10T01:55:05.772Z,99.99
2023-05-10T01:56:05.760Z,99.99
2023-05-10T01:57:05.758Z,99.99
2023-05-10T01:58:05.746Z,99.99
2023-05-10T01:59:05.730Z,99.99
2023-05-10T02:00:05.739Z,99.99
2023-05-10T02:01:05.778Z,99.99
2023-05-10T02:02:05.705Z,99.99
2023-05-10T02:03:05.794Z,99.99
2023-05-10T02:04:05.793Z,99.99
2023-05-10T02:05:05.668Z,99.99
2023-05-10T02:06:05.661Z,99.99
2023-05-10T02:07:05.650Z,99.99
2023-05-10T02:08:05.637Z,99.99
2023-05-10T02:09:05.634Z,99.99
2023-05-10T02:10:05.630Z,99.99
2023-05-10T02:11:05.615Z,99.99
2023-05-10T02:12:05.600Z,99.99
2023-05-10T02:13:05.655Z,99.99
2023-05-10T02:14:05.582Z,99.99
2023-05-10T02:15:05.578Z,99.99
2023-05-10T02:16:05.597Z,99.99
2023-05-10T02:17:05.562Z,99.99
2023-05-10T02:18:05.551Z,99.99
2023-05-10T02:19:05.559Z,99.99
2023-05-10T02:20:05.722Z,99.99
2023-05-10T02:21:05.534Z,99.99
2023-05-10T02:22:05.505Z,99.99
2023-05-10T02:23:05.519Z,99.99
2023-05-10T02:24:05.496Z,99.99
2023-05-10T02:25:05.478Z,99.99
2023-05-10T02:26:05.465Z,99.99
2023-05-10T02:27:05.472Z,99.99
2023-05-10T02:28:05.446Z,99.99
2023-05-10T02:29:05.443Z,99.99
2023-05-10T02:30:05.433Z,99.99
2023-05-10T02:31:05.420Z,99.99
2023-05-10T02:32:05.442Z,99.99
2023-05-10T02:33:05.474Z,99.99
2023-05-10T02:34:05.391Z,99.99
2023-05-10T02:35:05.399Z,99.99
2023-05-10T02:36:05.381Z,99.99
2023-05-10T02:37:05.378Z,99.99
2023-05-10T02:38:05.348Z,99.99
2023-05-10T02:39:05.345Z,99.99
2023-05-10T02:40:05.333Z,99.99
2023-05-10T02:41:05.326Z,99.99
2023-05-10T02:42:05.309Z,99.99
2023-05-10T02:43:05.311Z,99.99
2023-05-10T02:44:05.290Z,99.99
2023-05-10T02:45:05.284Z,99.99
2023-05-10T02:46:05.314Z,99.99
2023-05-10T02:47:05.264Z,99.99
2023-05-10T02:48:05.513Z,99.99
2023-05-10T02:49:05.245Z,99.99
2023-05-10T02:50:05.236Z,99.99
2023-05-10T02:51:05.261Z,99.99
2023-05-10T02:52:05.219Z,99.99
2023-05-10T02:53:05.206Z,99.99
2023-05-10T02:54:05.197Z,99.99
2023-05-10T02:55:05.186Z,99.99
2023-05-10T02:56:05.189Z,99.99
2023-05-10T02:57:05.170Z,99.99
2023-05-10T02:58:05.171Z,99.99
2023-05-10T02:59:05.163Z,99.99
2023-05-10T03:01:05.173Z,99.99
2023-05-10T03:02:05.117Z,99.99
2023-05-10T03:03:05.157Z,99.99
2023-05-10T03:04:05.140Z,99.99
2023-05-10T03:05:05.087Z,99.99
2023-05-10T03:06:05.090Z,99.99
2023-05-10T03:07:05.090Z,99.99
2023-05-10T03:08:05.076Z,99.99
2023-05-10T03:09:05.047Z,99.99
2023-05-10T03:10:05.043Z,99.99
2023-05-10T03:11:05.046Z,99.99
2023-05-10T03:12:05.039Z,99.99
2023-05-10T03:13:05.032Z,99.99
2023-05-10T03:14:05.007Z,99.99
2023-05-10T03:15:04.990Z,99.99
2023-05-10T03:16:05.044Z,99.99
2023-05-10T03:17:04.971Z,99.99
2023-05-10T03:18:04.981Z,99.99
2023-05-10T03:19:04.948Z,99.99
2023-05-10T03:20:04.940Z,99.99
2023-05-10T03:21:04.932Z,99.99
2023-05-10T03:22:04.929Z,99.99
2023-05-10T03:23:04.932Z,99.99
2023-05-10T03:24:04.906Z,99.99
2023-05-10T03:25:04.892Z,99.99
2023-05-10T03:26:04.887Z,99.99
2023-05-10T03:27:04.870Z,99.99
2023-05-10T03:28:04.864Z,99.99
2023-05-10T03:29:04.863Z,99.99
2023-05-10T03:30:04.845Z,99.99
2023-05-10T03:31:04.871Z,99.99
2023-05-10T03:32:04.824Z,99.99
2023-05-10T03:33:04.866Z,99.99
2023-05-10T03:34:04.813Z,99.99
2023-05-10T03:35:04.793Z,99.99
2023-05-10T03:36:04.789Z,99.99
2023-05-10T03:37:04.785Z,99.99
2023-05-10T03:38:04.776Z,99.99
2023-05-10T03:39:04.782Z,99.99
2023-05-10T03:40:04.750Z,99.99
2023-05-10T03:41:04.741Z,99.99
2023-05-10T03:42:04.724Z,99.99
2023-05-10T03:43:04.717Z,99.99
2023-05-10T03:44:04.712Z,99.99
2023-05-10T03:45:04.691Z,99.99
2023-05-10T03:46:04.687Z,99.99
2023-05-10T03:47:04.722Z,99.99
2023-05-10T03:48:04.706Z,99.99
2023-05-10T03:49:04.657Z,99.99
2023-05-10T03:50:04.649Z,99.99
2023-05-10T03:51:04.636Z,99.99
2023-05-10T03:52:04.632Z,99.99
2023-05-10T03:53:04.618Z,99.99
2023-05-10T03:54:04.614Z,99.99
2023-05-10T03:55:04.706Z,99.99
2023-05-10T03:56:04.589Z,99.99
2023-05-10T03:57:04.581Z,99.99
2023-05-10T03:58:04.565Z,99.99
2023-05-10T03:59:04.556Z,99.99
2023-05-10T04:00:04.556Z,99.99
2023-05-10T04:01:04.539Z,99.99
2023-05-10T04:02:04.582Z,99.99
2023-05-10T04:03:04.626Z,99.99
2023-05-10T04:04:04.590Z,99.99
2023-05-10T04:05:04.498Z,99.99
2023-05-10T04:06:04.526Z,99.99
2023-05-10T04:07:04.477Z,99.99
2023-05-10T04:08:04.472Z,99.99
2023-05-10T04:09:04.459Z,99.99
2023-05-10T04:10:04.452Z,99.99
2023-05-10T04:11:04.460Z,99.99
2023-05-10T04:12:04.432Z,99.99
2023-05-10T04:13:04.437Z,99.99
2023-05-10T04:14:04.414Z,99.99
2023-05-10T04:15:04.399Z,99.99
2023-05-10T04:16:04.392Z,99.99
2023-05-10T04:17:04.479Z,99.99
2023-05-10T04:18:06.527Z,99.99
2023-05-10T04:19:04.362Z,99.99
2023-05-10T04:20:04.353Z,99.99
2023-05-10T04:21:04.338Z,99.99
2023-05-10T04:22:04.333Z,99.99
2023-05-10T04:23:04.322Z,99.99
2023-05-10T04:24:04.319Z,99.99
2023-05-10T04:25:04.301Z,99.99
2023-05-10T04:26:04.294Z,99.99
2023-05-10T04:27:04.305Z,99.99
2023-05-10T04:28:04.273Z,99.99
2023-05-10T04:29:04.270Z,99.99
2023-05-10T04:30:04.266Z,99.99
2023-05-10T04:31:04.303Z,99.99
2023-05-10T04:32:04.233Z,99.99
2023-05-10T04:33:04.284Z,99.99
2023-05-10T04:34:04.214Z,99.99
2023-05-10T04:35:04.203Z,99.99
2023-05-10T04:36:04.195Z,99.99
2023-05-10T04:37:04.179Z,99.99
2023-05-10T04:38:04.195Z,99.99
2023-05-10T04:39:04.156Z,99.99
2023-05-10T04:40:04.152Z,99.99
2023-05-10T04:41:04.138Z,99.99
2023-05-10T04:42:04.135Z,99.99
2023-05-10T04:43:04.140Z,99.99
2023-05-10T04:44:04.112Z,99.99
2023-05-10T04:45:04.101Z,99.99
2023-05-10T04:46:04.150Z,99.99
2023-05-10T04:47:04.090Z,99.99
2023-05-10T04:48:04.108Z,99.99
2023-05-10T04:49:04.059Z,99.99
2023-05-10T04:50:04.058Z,99.99
2023-05-10T04:51:04.041Z,99.99
2023-05-10T04:52:04.029Z,99.99
2023-05-10T04:53:04.029Z,99.99
2023-05-10T04:54:06.585Z,99.99
2023-05-10T04:55:04.000Z,99.99
2023-05-10T04:56:03.992Z,99.99
2023-05-10T04:57:03.977Z,99.99
2023-05-10T04:58:03.973Z,99.99
2023-05-10T04:59:03.984Z,99.99
2023-05-10T05:00:03.970Z,99.99
2023-05-10T05:01:03.943Z,99.99
2023-05-10T05:02:03.984Z,99.99
2023-05-10T05:03:04.036Z,99.99
2023-05-10T05:04:03.912Z,99.99
2023-05-10T05:05:03.901Z,99.99
2023-05-10T05:06:03.893Z,99.99
2023-05-10T05:07:03.881Z,99.99
2023-05-10T05:08:04.075Z,99.99
2023-05-10T05:09:03.865Z,99.99
2023-05-10T05:10:03.861Z,99.99
2023-05-10T05:11:03.845Z,99.99
2023-05-10T05:12:03.831Z,99.99
2023-05-10T05:13:03.874Z,99.99
2023-05-10T05:14:03.818Z,99.99
2023-05-10T05:15:03.821Z,99.99
2023-05-10T05:16:03.898Z,99.99
2023-05-10T05:17:03.782Z,99.99
2023-05-10T05:18:03.807Z,99.99
2023-05-10T05:19:03.761Z,99.99
2023-05-10T05:20:03.756Z,99.99
2023-05-10T05:21:03.744Z,99.99
2023-05-10T05:22:03.734Z,99.99
2023-05-10T05:23:03.722Z,99.99
2023-05-10T05:24:03.719Z,99.99
2023-05-10T05:25:03.703Z,99.99
2023-05-10T05:26:03.698Z,99.99
2023-05-10T05:27:03.679Z,99.99
2023-05-10T05:28:03.684Z,99.99
2023-05-10T05:29:03.669Z,99.99
2023-05-10T05:30:03.656Z,99.99
2023-05-10T05:31:03.663Z,99.99
2023-05-10T05:32:03.713Z,99.99
2023-05-10T05:33:03.665Z,99.99
2023-05-10T05:34:03.617Z,99.99
2023-05-10T05:35:03.603Z,99.99
2023-05-10T05:36:03.595Z,99.99
2023-05-10T05:37:03.597Z,99.99
2023-05-10T05:38:03.574Z,99.99
2023-05-10T05:39:03.561Z,99.99
2023-05-10T05:40:03.552Z,99.99
2023-05-10T05:41:03.544Z,99.99
2023-05-10T05:42:03.741Z,99.99
2023-05-10T05:43:03.519Z,99.99
2023-05-10T05:44:03.515Z,99.99
2023-05-10T05:45:03.523Z,99.99
2023-05-10T05:46:03.590Z,99.99
2023-05-10T05:47:03.506Z,99.99
2023-05-10T05:48:03.530Z,99.99
2023-05-10T05:49:03.466Z,99.99
2023-05-10T05:50:03.462Z,99.99
2023-05-10T05:51:05.778Z,99.99
2023-05-10T05:52:03.436Z,99.99
2023-05-10T05:53:03.420Z,99.99
2023-05-10T05:54:03.418Z,99.99
2023-05-10T05:55:03.402Z,99.99
2023-05-10T05:56:03.398Z,99.99
2023-05-10T05:57:03.389Z,99.99
2023-05-10T05:58:03.386Z,99.99
2023-05-10T05:59:03.364Z,99.99
2023-05-10T06:00:03.358Z,99.99
2023-05-10T06:01:03.346Z,99.99
2023-05-10T06:02:03.387Z,99.99
2023-05-10T06:03:03.471Z,99.99
2023-05-10T06:04:03.380Z,99.99
2023-05-10T06:05:03.314Z,99.99
2023-05-10T06:06:03.299Z,99.99
2023-05-10T06:07:03.289Z,99.99
2023-05-10T06:08:03.284Z,99.99
2023-05-10T06:09:03.267Z,99.99
2023-05-10T06:10:03.262Z,99.99
2023-05-10T06:11:03.254Z,99.99
2023-05-10T06:12:03.243Z,99.99
2023-05-10T06:13:03.254Z,99.99
2023-05-10T06:14:03.221Z,99.99
2023-05-10T06:15:03.225Z,99.99
2023-05-10T06:16:03.202Z,99.99
2023-05-10T06:17:03.268Z,99.99
2023-05-10T06:18:03.275Z,99.99
2023-05-10T06:19:03.223Z,99.99
2023-05-10T06:20:03.170Z,99.99
2023-05-10T06:21:03.185Z,99.99
2023-05-10T06:22:03.153Z,99.99
2023-05-10T06:23:03.153Z,99.99
2023-05-10T06:24:03.123Z,99.99
2023-05-10T06:25:03.117Z,99.99
2023-05-10T06:26:03.116Z,99.99
2023-05-10T06:27:03.093Z,99.99
2023-05-10T06:28:03.085Z,99.99
2023-05-10T06:29:03.075Z,99.99
2023-05-10T06:30:12.248Z,99.99
2023-05-10T06:31:03.090Z,99.99
2023-05-10T06:32:03.037Z,99.99
2023-05-10T06:33:03.050Z,99.99
2023-05-10T06:34:03.024Z,99.99
2023-05-10T06:35:03.058Z,99.99
2023-05-10T06:36:03.046Z,99.99
2023-05-10T06:37:02.994Z,99.99
2023-05-10T06:38:02.989Z,99.99
2023-05-10T06:39:02.992Z,99.99
2023-05-10T06:40:02.967Z,99.99
2023-05-10T06:41:02.953Z,99.99
2023-05-10T06:42:02.942Z,99.99
2023-05-10T06:43:02.952Z,99.99
2023-05-10T06:44:02.923Z,99.99
2023-05-10T06:45:02.914Z,99.99
2023-05-10T06:46:02.925Z,99.99
2023-05-10T06:47:02.895Z,99.99
2023-05-10T06:48:02.902Z,99.99
2023-05-10T06:49:02.875Z,99.99
2023-05-10T06:50:02.890Z,99.99
2023-05-10T06:51:02.876Z,99.99
2023-05-10T06:52:02.852Z,99.99
2023-05-10T06:53:02.849Z,99.99
2023-05-10T06:54:02.851Z,99.99
2023-05-10T06:55:02.819Z,99.99
2023-05-10T06:56:02.805Z,99.99
2023-05-10T06:57:04.158Z,99.99
2023-05-10T06:58:02.782Z,99.99
2023-05-10T06:59:02.842Z,99.99
2023-05-10T07:00:02.770Z,99.99
2023-05-10T07:01:02.825Z,99.99
2023-05-10T07:02:02.824Z,99.99
2023-05-10T07:03:02.804Z,99.99
2023-05-10T07:04:02.724Z,99.99
2023-05-10T07:05:03.552Z,99.99
2023-05-10T07:06:02.706Z,99.99
2023-05-10T07:07:02.717Z,99.99
2023-05-10T07:08:02.682Z,99.99
2023-05-10T07:09:02.682Z,99.99
2023-05-10T07:10:02.665Z,99.99
2023-05-10T07:11:02.658Z,99.99
2023-05-10T07:12:02.681Z,99.99
2023-05-10T07:13:02.851Z,99.99
2023-05-10T07:14:02.641Z,99.99
2023-05-10T07:15:02.619Z,99.99
2023-05-10T07:16:02.662Z,99.99
2023-05-10T07:17:02.613Z,99.99
2023-05-10T07:18:02.716Z,99.99
2023-05-10T07:19:02.587Z,99.99
2023-05-10T07:20:02.627Z,99.99
2023-05-10T07:21:02.612Z,99.99
2023-05-10T07:22:02.566Z,99.99
2023-05-10T07:23:02.570Z,99.99
2023-05-10T07:24:02.531Z,99.99
2023-05-10T07:25:02.523Z,99.99
2023-05-10T07:26:02.510Z,99.99
2023-05-10T07:27:02.508Z,99.99
2023-05-10T07:28:02.490Z,99.99
2023-05-10T07:29:02.482Z,99.99
2023-05-10T07:30:02.477Z,99.99
2023-05-10T07:31:02.573Z,99.99
2023-05-10T07:32:02.498Z,99.99
2023-05-10T07:33:02.505Z,99.99
2023-05-10T07:34:02.438Z,99.99
2023-05-10T07:35:02.431Z,99.99
2023-05-10T07:36:02.414Z,99.99
2023-05-10T07:37:02.418Z,99.99
2023-05-10T07:38:02.396Z,99.99
2023-05-10T07:39:02.410Z,99.99
2023-05-10T07:40:02.375Z,99.99
2023-05-10T07:41:02.383Z,99.99
2023-05-10T07:42:02.354Z,99.99
2023-05-10T07:43:02.353Z,99.99
2023-05-10T07:44:02.353Z,99.99
2023-05-10T07:45:02.340Z,99.99
2023-05-10T07:46:02.343Z,99.99
2023-05-10T07:47:02.326Z,99.99
2023-05-10T07:48:02.344Z,99.99
2023-05-10T07:49:02.296Z,99.99
2023-05-10T07:50:02.287Z,99.99
2023-05-10T07:51:02.487Z,99.99
2023-05-10T07:52:02.263Z,99.99
2023-05-10T07:53:02.258Z,99.99
2023-05-10T07:54:02.246Z,99.99
2023-05-10T07:55:02.276Z,99.99
2023-05-10T07:56:02.435Z,99.99
2023-05-10T07:57:02.231Z,99.99
2023-05-10T07:58:02.217Z,99.99
2023-05-10T07:59:02.217Z,99.63
2023-05-10T08:00:02.218Z,99.25
2023-05-10T08:01:02.218Z,99.34
2023-05-10T08:02:02.192Z,97.91
2023-05-10T08:03:02.343Z,98.38
2023-05-10T08:04:02.247Z,97.14
2023-05-10T08:05:02.158Z,96.70
2023-05-10T08:06:02.149Z,98.33
2023-05-10T08:07:02.140Z,99.99
2023-05-10T08:08:02.122Z,99.99
2023-05-10T08:09:02.139Z,99.99
2023-05-10T08:10:02.119Z,99.92
2023-05-10T08:11:02.180Z,99.05
2023-05-10T08:12:02.102Z,98.91
2023-05-10T08:13:02.101Z,99.99
2023-05-10T08:14:02.073Z,99.99
2023-05-10T08:15:02.075Z,99.99
2023-05-10T08:16:02.128Z,98.10
2023-05-10T08:17:02.055Z,97.76
2023-05-10T08:18:02.087Z,96.27
2023-05-10T08:19:02.067Z,96.08
2023-05-10T08:20:02.094Z,97.04
2023-05-10T08:21:02.022Z,98.82
2023-05-10T08:22:02.010Z,96.42
2023-05-10T08:23:02.015Z,95.79
2023-05-10T08:24:01.990Z,96.66
2023-05-10T08:25:01.994Z,97.33
2023-05-10T08:26:01.976Z,97.71
2023-05-10T08:27:02.011Z,97.28
2023-05-10T08:28:01.980Z,97.57
2023-05-10T08:29:01.967Z,97.38
2023-05-10T08:30:01.943Z,96.70
2023-05-10T08:31:01.968Z,94.40
2023-05-10T08:32:01.938Z,94.74
2023-05-10T08:33:01.994Z,96.18
2023-05-10T08:34:01.909Z,96.18
2023-05-10T08:35:01.915Z,98.00
2023-05-10T08:36:01.906Z,97.42
2023-05-10T08:37:01.894Z,96.03
2023-05-10T08:38:01.900Z,95.07
2023-05-10T08:39:01.874Z,94.69
2023-05-10T08:40:01.868Z,93.59
2023-05-10T08:41:01.899Z,94.11
2023-05-10T08:42:01.859Z,93.82
2023-05-10T08:43:01.873Z,96.42
2023-05-10T08:44:01.836Z,96.80
2023-05-10T08:45:01.833Z,95.45
2023-05-10T08:46:01.814Z,94.88
2023-05-10T08:47:01.855Z,94.59
2023-05-10T08:48:01.879Z,94.49
2023-05-10T08:49:01.807Z,93.92
2023-05-10T08:50:01.803Z,93.54
2023-05-10T08:51:01.815Z,93.77
2023-05-10T08:52:01.779Z,93.68
2023-05-10T08:53:01.768Z,92.62
2023-05-10T08:54:01.758Z,90.89
2023-05-10T08:55:01.764Z,92.24
2023-05-10T08:56:01.742Z,91.66
2023-05-10T08:57:01.743Z,93.58
2023-05-10T08:58:01.724Z,92.52
2023-05-10T08:59:01.780Z,91.85
2023-05-10T09:00:01.737Z,93.01
2023-05-10T09:01:01.833Z,95.89
2023-05-10T09:02:01.710Z,93.34
2023-05-10T09:03:01.743Z,92.57
2023-05-10T09:04:01.735Z,91.09
2023-05-10T09:05:01.737Z,93.30
2023-05-10T09:06:01.687Z,94.54
2023-05-10T09:07:01.662Z,94.83
2023-05-10T09:08:01.651Z,94.83
2023-05-10T09:09:01.652Z,96.61
2023-05-10T09:10:01.639Z,92.77
2023-05-10T09:11:01.642Z,94.93
2023-05-10T09:12:01.636Z,92.91
2023-05-10T09:13:01.619Z,90.31
2023-05-10T09:14:01.607Z,89.36
2023-05-10T09:15:01.634Z,88.35
2023-05-10T09:16:07.110Z,89.89
2023-05-10T09:17:01.614Z,90.46
2023-05-10T09:18:01.601Z,92.00
2023-05-10T09:19:01.628Z,89.31
2023-05-10T09:20:01.585Z,91.19
2023-05-10T09:21:01.556Z,92.91
2023-05-10T09:22:01.543Z,92.00
2023-05-10T09:23:01.534Z,91.33
2023-05-10T09:24:01.526Z,90.75
2023-05-10T09:25:01.520Z,90.37
2023-05-10T09:26:01.511Z,90.84
2023-05-10T09:27:01.509Z,91.04
2023-05-10T09:28:01.497Z,90.31
2023-05-10T09:29:01.487Z,91.04
2023-05-10T09:30:01.482Z,89.12
2023-05-10T09:31:01.541Z,91.23
2023-05-10T09:32:01.463Z,91.23
2023-05-10T09:33:01.490Z,88.16
2023-05-10T09:34:01.484Z,88.45
2023-05-10T09:35:01.441Z,88.83
2023-05-10T09:36:01.448Z,90.37
2023-05-10T09:37:01.428Z,90.75
2023-05-10T09:38:01.439Z,90.41
2023-05-10T09:39:01.411Z,90.51
2023-05-10T09:40:01.404Z,88.39
2023-05-10T09:41:01.401Z,87.24
2023-05-10T09:42:01.387Z,86.95
2023-05-10T09:43:01.381Z,86.28
2023-05-10T09:44:01.371Z,85.22
2023-05-10T09:45:01.393Z,85.85
2023-05-10T09:46:01.389Z,83.64
2023-05-10T09:47:01.430Z,87.34
2023-05-10T09:48:01.348Z,86.09
2023-05-10T09:49:01.336Z,84.84
2023-05-10T09:50:01.326Z,83.97
2023-05-10T09:51:01.321Z,83.69
2023-05-10T09:52:01.309Z,81.67
2023-05-10T09:53:01.304Z,83.97
2023-05-10T09:54:01.298Z,81.90
2023-05-10T09:55:01.292Z,83.34
2023-05-10T09:56:01.286Z,84.59
2023-05-10T09:57:01.275Z,85.07
2023-05-10T09:58:01.267Z,83.58
2023-05-10T09:59:01.267Z,82.09
2023-05-10T10:00:01.253Z,83.15
2023-05-10T10:01:01.248Z,84.78
2023-05-10T10:02:01.531Z,82.96
2023-05-10T10:03:01.299Z,83.63
2023-05-10T10:04:01.229Z,82.19
2023-05-10T10:05:01.261Z,81.13
2023-05-10T10:06:01.209Z,82.96
2023-05-10T10:07:01.206Z,84.98
2023-05-10T10:08:01.196Z,83.86
2023-05-10T10:09:01.189Z,83.39
2023-05-10T10:10:01.180Z,83.23
2023-05-10T10:11:01.177Z,81.84
2023-05-10T10:12:01.168Z,80.98
2023-05-10T10:13:01.180Z,80.11
2023-05-10T10:14:01.179Z,81.56
2023-05-10T10:15:01.155Z,79.82
2023-05-10T10:16:01.189Z,79.00
2023-05-10T10:17:08.397Z,78.71
2023-05-10T10:18:01.231Z,79.19
2023-05-10T10:19:01.205Z,78.71
2023-05-10T10:20:01.113Z,78.67
2023-05-10T10:21:01.141Z,79.98
2023-05-10T10:22:01.103Z,81.90
2023-05-10T10:23:01.092Z,81.99
2023-05-10T10:24:01.086Z,78.98
2023-05-10T10:25:01.081Z,81.09
2023-05-10T10:26:01.076Z,83.87
2023-05-10T10:27:01.072Z,83.36
2023-05-10T10:28:01.057Z,84.26
2023-05-10T10:29:01.061Z,84.94
2023-05-10T10:30:01.052Z,82.92
2023-05-10T10:31:01.084Z,82.05
2023-05-10T10:32:01.032Z,82.15
2023-05-10T10:33:01.711Z,82.67
2023-05-10T10:34:01.023Z,83.63
2023-05-10T10:35:01.060Z,81.71
2023-05-10T10:36:01.009Z,81.99
2023-05-10T10:37:01.002Z,80.90
2023-05-10T10:38:01.000Z,82.19
2023-05-10T10:39:00.996Z,79.60
2023-05-10T10:40:00.974Z,78.44
2023-05-10T10:41:00.970Z,80.36
2023-05-10T10:42:00.985Z,79.60
2023-05-10T10:43:00.955Z,81.04
2023-05-10T10:44:00.951Z,80.07
2023-05-10T10:45:00.941Z,78.92
2023-05-10T10:46:00.938Z,77.96
2023-05-10T10:47:01.026Z,78.48
2023-05-10T10:48:00.942Z,78.15
2023-05-10T10:49:00.922Z,77.09
2023-05-10T10:50:00.924Z,78.44
2023-05-10T10:51:01.031Z,78.63
2023-05-10T10:52:00.894Z,76.81
2023-05-10T10:53:00.896Z,77.76
2023-05-10T10:54:00.884Z,80.55
2023-05-10T10:55:00.879Z,77.67
2023-05-10T10:56:00.910Z,77.86
2023-05-10T10:57:00.861Z,78.44
2023-05-10T10:58:00.858Z,76.90
2023-05-10T10:59:00.841Z,77.48
2023-05-10T11:00:00.837Z,74.65
2023-05-10T11:01:00.881Z,76.39
2023-05-10T11:02:00.829Z,78.40
2023-05-10T11:03:00.867Z,78.88
2023-05-10T11:04:00.862Z,78.15
2023-05-10T11:05:00.805Z,78.15
2023-05-10T11:06:00.796Z,77.63
2023-05-10T11:07:00.800Z,78.02
2023-05-10T11:08:00.779Z,78.21
2023-05-10T11:09:00.777Z,78.44
2023-05-10T11:10:00.763Z,77.09
2023-05-10T11:11:00.805Z,76.61
2023-05-10T11:12:00.755Z,80.46
2023-05-10T11:13:00.739Z,78.38
2023-05-10T11:14:00.736Z,77.23
2023-05-10T11:15:00.725Z,77.13
2023-05-10T11:16:00.724Z,77.51
2023-05-10T11:17:00.751Z,76.14
2023-05-10T11:18:00.725Z,77.00
2023-05-10T11:19:00.738Z,79.05
2023-05-10T11:20:00.689Z,79.25
2023-05-10T11:21:00.695Z,77.13
2023-05-10T11:22:00.679Z,78.67
2023-05-10T11:23:00.690Z,78.28
2023-05-10T11:24:00.663Z,77.65
2023-05-10T11:25:00.665Z,77.08
2023-05-10T11:26:00.652Z,77.46
2023-05-10T11:27:00.644Z,75.76
2023-05-10T11:28:00.651Z,74.03
2023-05-10T11:29:00.627Z,76.15
2023-05-10T11:30:00.637Z,75.57
2023-05-10T11:31:00.673Z,75.23
2023-05-10T11:32:00.641Z,75.80
2023-05-10T11:33:00.631Z,74.45
2023-05-10T11:34:00.609Z,72.72
2023-05-10T11:35:00.589Z,73.01
2023-05-10T11:36:00.585Z,72.24
2023-05-10T11:37:00.581Z,72.91
2023-05-10T11:38:00.581Z,74.16
2023-05-10T11:39:00.612Z,72.81
2023-05-10T11:40:00.561Z,69.99
2023-05-10T11:41:00.560Z,72.45
2023-05-10T11:42:00.556Z,72.84
2023-05-10T11:43:00.541Z,72.84
2023-05-10T11:44:00.561Z,72.17
2023-05-10T11:45:00.548Z,72.20
2023-05-10T11:46:00.574Z,72.78
2023-05-10T11:47:00.517Z,73.46
2023-05-10T11:48:00.568Z,72.49
2023-05-10T11:49:00.525Z,72.14
2023-05-10T11:50:00.513Z,72.72
2023-05-10T11:51:00.494Z,70.60
2023-05-10T11:52:00.498Z,70.95
2023-05-10T11:53:00.483Z,72.30
2023-05-10T11:54:00.481Z,73.97
2023-05-10T11:55:00.494Z,73.68
2023-05-10T11:56:00.467Z,70.89
2023-05-10T11:57:00.464Z,72.24
2023-05-10T11:58:00.460Z,69.87
2023-05-10T11:59:00.450Z,69.15
2023-05-10T12:00:00.447Z,70.95
2023-05-10T12:01:00.435Z,73.65
2023-05-10T12:02:00.453Z,73.97
2023-05-10T12:03:00.486Z,76.18
2023-05-10T12:04:00.744Z,73.65
2023-05-10T12:05:00.616Z,74.16
2023-05-10T12:06:00.411Z,72.24
2023-05-10T12:07:00.397Z,71.47
2023-05-10T12:08:00.395Z,71.12
2023-05-10T12:09:00.387Z,71.08
2023-05-10T12:10:00.386Z,71.08
2023-05-10T12:11:00.418Z,73.39
2023-05-10T12:12:00.371Z,72.63
2023-05-10T12:13:00.366Z,72.72
2023-05-10T12:14:00.362Z,71.98
2023-05-10T12:15:00.358Z,69.57
2023-05-10T12:16:00.385Z,70.15
2023-05-10T12:17:00.352Z,71.50
2023-05-10T12:18:00.446Z,70.92
2023-05-10T12:19:00.370Z,72.14
2023-05-10T12:20:00.329Z,71.37
2023-05-10T12:21:00.319Z,70.12
2023-05-10T12:22:00.316Z,69.83
2023-05-10T12:23:00.767Z,72.14
2023-05-10T12:24:00.306Z,73.58
2023-05-10T12:25:00.293Z,72.95
2023-05-10T12:26:00.292Z,69.87
2023-05-10T12:27:00.321Z,70.92
2023-05-10T12:28:00.289Z,72.75
2023-05-10T12:29:00.275Z,71.12
2023-05-10T12:30:00.284Z,70.35
2023-05-10T12:31:00.263Z,72.56
2023-05-10T12:32:00.370Z,68.48
2023-05-10T12:33:00.293Z,72.81
2023-05-10T12:34:00.256Z,73.39
2023-05-10T12:35:00.248Z,73.20
2023-05-10T12:36:00.238Z,71.70
2023-05-10T12:37:00.240Z,70.83
2023-05-10T12:38:00.242Z,72.72
2023-05-10T12:39:00.219Z,71.76
2023-05-10T12:40:00.234Z,72.24
2023-05-10T12:41:00.367Z,71.47
2023-05-10T12:42:00.209Z,73.33
2023-05-10T12:43:00.241Z,72.56
2023-05-10T12:44:00.242Z,74.01
2023-05-10T12:45:00.189Z,72.85
2023-05-10T12:46:00.232Z,71.85
2023-05-10T12:47:00.179Z,70.53
2023-05-10T12:48:00.299Z,71.94
2023-05-10T12:49:08.567Z,75.02
2023-05-10T12:50:00.185Z,73.38
2023-05-10T12:51:00.153Z,74.54
2023-05-10T12:52:00.152Z,78.52
2023-05-10T12:53:00.151Z,74.80